Time;durP1;ratioP1;P1;durP2;ratioP2;P2;SDS_P1;SDS_P2;PMS_P1;PMS_P2;Temp;Humidity;BMP_temperature;BMP_pressure;BME280_temperature;BME280_humidity;BME280_pressure;Samples;Min_cycle;Max_cycle;Signal;HPM_P1;HPM_P2
2023/02/24 00:01:58;;;;;;;4.40;3.42;;;23.00;52.30;;;;;;5029946;28;20025;-70
2023/02/24 00:04:24;;;;;;;3.92;3.03;;;23.00;52.30;;;;;;5014063;28;20029;-70
2023/02/24 00:06:50;;;;;;;4.95;2.97;;;23.00;52.30;;;;;;5030683;28;20492;-71
2023/02/24 00:09:19;;;;;;;4.68;3.00;;;23.00;52.30;;;;;;5030488;28;20029;-71
2023/02/24 00:11:54;;;;;;;4.30;3.10;;;23.00;52.30;;;;;;5031467;28;20021;-70
2023/02/24 00:14:20;;;;;;;3.47;2.70;;;23.00;52.30;;;;;;5029375;28;20022;-71
2023/02/24 00:16:46;;;;;;;3.58;2.83;;;23.00;52.30;;;;;;5030999;28;20761;-71
2023/02/24 00:19:15;;;;;;;3.78;2.90;;;22.90;52.80;;;;;;5030638;28;20021;-70
2023/02/24 00:21:42;;;;;;;3.65;2.90;;;22.90;52.80;;;;;;5030245;28;20364;-70
2023/02/24 00:24:08;;;;;;;4.03;2.75;;;22.90;52.30;;;;;;5012986;28;20385;-71
2023/02/24 00:26:33;;;;;;;3.42;2.72;;;22.90;52.40;;;;;;5030399;28;20025;-70
2023/02/24 00:29:02;;;;;;;3.67;2.60;;;22.90;52.30;;;;;;5031106;28;20026;-71
2023/02/24 00:31:29;;;;;;;3.72;2.90;;;22.90;52.30;;;;;;5028932;28;20104;-70
2023/02/24 00:33:57;;;;;;;3.42;2.40;;;22.90;52.90;;;;;;5029256;28;20495;-70
2023/02/24 00:36:24;;;;;;;3.53;2.47;;;22.80;52.30;;;;;;5029918;28;20388;-70
2023/02/24 00:39:10;;;;;;;4.40;2.78;;;22.80;52.30;;;;;;5012169;28;20463;-70
2023/02/24 00:41:44;;;;;;;4.00;2.58;;;22.80;52.40;;;;;;5029967;28;20538;-70
2023/02/24 00:44:12;;;;;;;3.08;2.35;;;22.80;52.40;;;;;;5030676;28;20029;-70
2023/02/24 00:46:41;;;;;;;2.85;2.30;;;22.80;52.40;;;;;;5030466;28;20026;-70
2023/02/24 00:49:11;;;;;;;2.85;2.25;;;22.70;52.30;;;;;;5028946;28;20485;-70
2023/02/24 00:51:40;;;;;;;3.10;2.40;;;22.70;52.30;;;;;;5030487;28;20032;-71
2023/02/24 00:54:07;;;;;;;2.97;2.20;;;22.70;52.30;;;;;;5030325;28;20029;-70
2023/02/24 00:56:33;;;;;;;3.40;2.60;;;22.70;52.40;;;;;;5030283;28;20511;-71
2023/02/24 00:59:00;;;;;;;2.85;2.30;;;22.70;52.30;;;;;;5030876;28;20480;-71
2023/02/24 01:01:30;;;;;;;4.43;2.40;;;22.70;52.30;;;;;;5030904;28;20029;-71
2023/02/24 01:03:58;;;;;;;3.38;2.58;;;22.70;52.30;;;;;;5027437;28;20030;-71
2023/02/24 01:06:28;;;;;;;2.80;2.05;;;22.70;52.30;;;;;;5028439;28;20021;-71
2023/02/24 01:08:54;;;;;;;;;;;22.70;52.30;;;;;;5030415;28;20022;-70
2023/02/24 01:12:16;;;;;;;2.85;2.17;;;22.70;52.40;;;;;;5028407;28;19919;-70
2023/02/24 01:14:25;;;;;;;3.00;2.20;;;22.60;52.30;;;;;;5030610;28;20030;-71
2023/02/24 01:16:52;;;;;;;3.20;2.20;;;22.70;52.40;;;;;;5030265;28;20477;-70
2023/02/24 01:19:22;;;;;;;2.83;2.22;;;22.60;52.30;;;;;;5029482;28;20497;-70
2023/02/24 01:21:53;;;;;;;2.88;2.35;;;22.60;52.30;;;;;;5027657;28;20164;-70
2023/02/24 01:24:23;;;;;;;3.20;2.17;;;22.60;52.30;;;;;;5028857;28;20034;-70
2023/02/24 01:26:49;;;;;;;2.60;2.20;;;22.60;52.30;;;;;;5029152;28;20029;-71
2023/02/24 01:29:15;;;;;;;3.47;2.40;;;22.60;52.30;;;;;;5012549;28;20025;-71
2023/02/24 01:31:42;;;;;;;3.08;2.10;;;22.60;52.30;;;;;;5029860;28;20032;-70
2023/02/24 01:34:09;;;;;;;3.13;2.30;;;22.60;52.30;;;;;;5012521;28;20024;-70
2023/02/24 01:36:37;;;;;;;3.05;2.28;;;22.60;52.30;;;;;;5028380;28;20379;-70
2023/02/24 01:39:05;;;;;;;4.22;2.20;;;22.50;52.30;;;;;;5009822;28;20091;-70
2023/02/24 01:41:31;;;;;;;3.28;2.20;;;22.50;52.30;;;;;;5012327;28;20473;-70
2023/02/24 01:44:18;;;;;;;3.45;2.42;;;22.50;52.30;;;;;;5028571;28;20033;-71
2023/02/24 01:46:51;;;;;;;3.55;2.25;;;22.50;52.30;;;;;;4996511;28;20053;-71
2023/02/24 01:49:32;;;;;;;3.05;2.30;;;22.50;52.30;;;;;;5030010;28;20029;-71
2023/02/24 01:52:05;;;;;;;2.78;1.98;;;22.50;52.40;;;;;;5029500;28;20029;-71
2023/02/24 01:54:53;;;;;;;3.33;2.30;;;22.50;52.30;;;;;;5030232;28;20029;-71
2023/02/24 01:57:22;;;;;;;3.00;2.30;;;22.50;52.40;;;;;;5027528;28;20045;-71
2023/02/24 01:59:51;;;;;;;2.75;2.00;;;22.50;52.40;;;;;;5029764;28;20029;-71
2023/02/24 02:02:18;;;;;;;;;;;22.50;52.40;;;;;;5033804;28;20033;-71
2023/02/24 02:05:17;;;;;;;2.90;2.10;;;22.50;52.40;;;;;;5015695;28;19917;-71
2023/02/24 02:07:44;;;;;;;2.88;2.03;;;22.40;52.30;;;;;;5000709;28;20053;-71
2023/02/24 02:10:10;;;;;;;3.00;1.90;;;22.40;52.40;;;;;;5031516;28;20030;-71
2023/02/24 02:12:42;;;;;;;2.63;1.90;;;22.40;52.30;;;;;;5033851;28;20018;-71
2023/02/24 02:15:14;;;;;;;2.80;2.00;;;22.40;52.40;;;;;;5031082;28;20028;-71
2023/02/24 02:18:10;;;;;;;3.05;2.15;;;22.40;52.40;;;;;;5015667;28;20503;-71
2023/02/24 02:21:00;;;;;;;2.80;2.10;;;22.40;52.40;;;;;;5033116;28;20048;-71
2023/02/24 02:23:44;;;;;;;2.55;1.90;;;22.40;52.40;;;;;;5033121;28;20033;-71
2023/02/24 02:26:10;;;;;;;2.55;1.90;;;22.40;52.40;;;;;;5032231;28;20481;-71
2023/02/24 02:29:18;;;;;;;2.70;1.85;;;22.40;52.40;;;;;;5033265;28;20028;-71
2023/02/24 02:32:16;;;;;;;3.03;2.00;;;22.30;52.40;;;;;;5033103;28;20033;-71
2023/02/24 02:35:07;;;;;;;2.80;1.92;;;22.30;52.40;;;;;;5031969;28;20021;-71
2023/02/24 02:37:42;;;;;;;3.08;1.90;;;22.30;52.40;;;;;;5030723;28;20068;-70
2023/02/24 02:40:20;;;;;;;2.40;1.70;;;22.30;52.40;;;;;;5031776;28;20161;-70
2023/02/24 02:43:05;;;;;;;2.85;1.73;;;22.30;52.40;;;;;;5032954;28;20021;-70
2023/02/24 02:45:54;;;;;;;2.67;1.80;;;22.30;52.40;;;;;;5020826;28;20030;-70
2023/02/24 02:48:29;;;;;;;;;;;22.30;52.40;;;;;;5032906;28;20431;-70
2023/02/24 02:51:11;;;;;;;2.28;1.70;;;22.30;52.40;;;;;;5014834;28;19915;-70
2023/02/24 02:53:48;;;;;;;2.20;1.60;;;22.30;52.40;;;;;;5032663;28;20473;-70
2023/02/24 02:56:43;;;;;;;2.55;1.70;;;22.30;52.40;;;;;;5032962;28;20503;-70
2023/02/24 02:59:13;;;;;;;2.80;1.75;;;22.20;52.40;;;;;;5031831;28;20033;-70
2023/02/24 03:01:42;;;;;;;2.50;1.80;;;22.30;52.40;;;;;;5029783;28;20024;-70
2023/02/24 03:04:12;;;;;;;2.70;1.80;;;22.20;52.40;;;;;;5014813;28;20044;-70
2023/02/24 03:07:01;;;;;;;2.20;1.50;;;22.20;52.40;;;;;;5032432;28;20030;-70
2023/02/24 03:09:33;;;;;;;2.73;1.87;;;22.20;52.40;;;;;;5031688;28;20447;-70
2023/02/24 03:12:07;;;;;;;2.40;1.73;;;22.20;52.40;;;;;;5031107;28;20025;-70
2023/02/24 03:14:36;;;;;;;2.40;1.60;;;22.20;52.50;;;;;;5027381;28;20043;-71
2023/02/24 03:17:05;;;;;;;2.20;1.60;;;22.20;52.50;;;;;;5029790;28;20057;-70
2023/02/24 03:19:36;;;;;;;2.40;1.80;;;22.20;52.40;;;;;;5030866;28;20041;-70
2023/02/24 03:22:13;;;;;;;1.88;1.50;;;22.20;52.50;;;;;;5028565;28;20049;-70
2023/02/24 03:24:43;;;;;;;3.40;1.75;;;22.20;52.50;;;;;;5029793;28;20052;-70
2023/02/24 03:27:29;;;;;;;;;;;22.20;52.50;;;;;;5031411;28;20101;-70
2023/02/24 03:30:05;;;;;;;2.10;1.50;;;22.10;52.40;;;;;;5032504;28;19916;-70
2023/02/24 03:32:42;;;;;;;2.03;1.55;;;22.10;52.40;;;;;;5030104;28;20025;-70
2023/02/24 03:35:27;;;;;;;2.13;1.42;;;22.10;52.40;;;;;;5030165;28;20542;-70
2023/02/24 03:37:56;;;;;;;2.30;1.55;;;22.10;52.40;;;;;;5028003;28;20033;-70
2023/02/24 03:40:32;;;;;;;2.28;1.70;;;22.10;52.40;;;;;;5030967;28;20029;-70
2023/02/24 03:43:26;;;;;;;1.80;1.20;;;22.10;52.40;;;;;;5031775;28;20842;-70
2023/02/24 03:45:53;;;;;;;2.03;1.50;;;22.10;52.50;;;;;;5030194;28;20484;-71
2023/02/24 03:48:19;;;;;;;1.98;1.45;;;22.10;53.00;;;;;;5014361;28;20029;-70
2023/02/24 03:50:45;;;;;;;2.47;1.70;;;22.10;52.50;;;;;;5031523;28;20048;-70
2023/02/24 03:54:04;;;;;;;2.00;1.40;;;22.10;52.50;;;;;;5029194;28;20116;-71
2023/02/24 03:56:58;;;;;;;1.80;1.50;;;22.10;52.50;;;;;;4945678;28;20217;-71
2023/02/24 03:59:24;;;;;;;2.20;1.50;;;22.10;52.50;;;;;;5029792;28;20553;-70
2023/02/24 04:02:04;;;;;;;2.00;1.60;;;22.10;52.50;;;;;;5014203;28;20037;-71
2023/02/24 04:04:53;;;;;;;2.13;1.50;;;22.10;52.50;;;;;;5027930;28;20033;-71
2023/02/24 04:07:44;;;;;;;2.20;1.65;;;22.00;52.50;;;;;;5030773;28;20029;-70
2023/02/24 04:10:34;;;;;;;2.25;1.50;;;22.10;52.50;;;;;;5031476;28;20120;-71
2023/02/24 04:13:12;;;;;;;2.15;1.50;;;22.10;52.60;;;;;;5028081;28;20037;-69
2023/02/24 04:15:42;;;;;;;2.17;1.55;;;22.00;52.50;;;;;;5028884;28;20017;-70
2023/02/24 04:18:29;;;;;;;2.13;1.48;;;22.00;52.50;;;;;;5028384;28;20390;-70
2023/02/24 04:20:58;;;;;;;1.85;1.50;;;22.00;52.50;;;;;;5029725;28;20465;-70
2023/02/24 04:23:42;;;;;;;2.20;1.60;;;22.00;52.50;;;;;;5030447;28;20155;-70
2023/02/24 04:26:11;;;;;;;2.60;1.40;;;22.00;52.50;;;;;;5031151;28;20099;-70
2023/02/24 04:28:37;;;;;;;;;;;22.00;52.50;;;;;;5026340;28;20025;-71
2023/02/24 04:31:09;;;;;;;2.08;1.50;;;22.00;52.50;;;;;;5030468;28;19920;-71
2023/02/24 04:33:37;;;;;;;1.80;1.40;;;22.00;52.50;;;;;;5029999;28;20602;-70
2023/02/24 04:36:04;;;;;;;2.30;1.60;;;22.00;52.50;;;;;;5030882;28;20050;-71
2023/02/24 04:38:30;;;;;;;2.47;1.50;;;22.00;52.50;;;;;;5029550;28;20025;-71
2023/02/24 04:40:56;;;;;;;2.15;1.48;;;22.00;52.50;;;;;;5026858;28;20038;-71
2023/02/24 04:43:22;;;;;;;2.17;1.40;;;22.00;52.60;;;;;;5030065;28;20076;-71
2023/02/24 04:45:50;;;;;;;2.13;1.40;;;22.00;52.60;;;;;;5029387;28;20134;-70
2023/02/24 04:48:17;;;;;;;1.92;1.50;;;22.00;52.60;;;;;;5030923;28;20032;-70
2023/02/24 04:50:43;;;;;;;2.40;1.50;;;22.00;52.60;;;;;;5029574;28;20032;-70
2023/02/24 04:53:16;;;;;;;1.98;1.30;;;21.90;52.60;;;;;;5028219;28;20029;-70
2023/02/24 04:55:49;;;;;;;2.03;1.40;;;21.90;52.60;;;;;;5004149;28;20494;-70
2023/02/24 04:58:27;;;;;;;1.85;1.40;;;21.90;52.60;;;;;;5028104;28;20028;-70
2023/02/24 05:00:56;;;;;;;1.67;1.30;;;21.90;52.60;;;;;;5030595;28;20033;-70
2023/02/24 05:03:26;;;;;;;2.13;1.42;;;21.90;52.60;;;;;;5027879;28;20124;-70
2023/02/24 05:05:58;;;;;;;1.92;1.50;;;21.90;52.60;;;;;;5030550;28;20041;-70
2023/02/24 05:08:26;;;;;;;1.67;1.30;;;21.90;52.60;;;;;;5029970;28;20485;-70
2023/02/24 05:10:52;;;;;;;2.30;1.40;;;21.90;52.60;;;;;;5002332;28;20030;-70
2023/02/24 05:13:25;;;;;;;1.90;1.33;;;21.90;52.60;;;;;;5028825;28;20021;-70
2023/02/24 05:15:51;;;;;;;2.10;1.40;;;21.90;52.60;;;;;;5029518;28;20435;-70
2023/02/24 05:18:17;;;;;;;2.13;1.30;;;21.90;52.60;;;;;;5028639;28;20032;-70
2023/02/24 05:23:40;;;;;;;2.17;1.33;;;21.90;52.60;;;;;;5029136;28;20128;-70
2023/02/24 05:26:09;;;;;;;1.92;1.45;;;21.90;52.60;;;;;;5028734;28;20041;-70
2023/02/24 05:28:39;;;;;;;1.77;1.33;;;21.90;52.60;;;;;;4998960;28;20582;-70
2023/02/24 05:31:14;;;;;;;1.65;1.20;;;21.80;52.50;;;;;;5029546;28;20374;-70
2023/02/24 05:33:42;;;;;;;2.10;1.50;;;21.80;52.50;;;;;;5029599;28;20495;-70
2023/02/24 05:36:11;;;;;;;2.60;1.40;;;21.80;52.50;;;;;;5032986;28;20030;-69
2023/02/24 05:38:37;;;;;;;1.70;1.30;;;21.90;52.60;;;;;;5016392;28;20477;-69
2023/02/24 05:41:13;;;;;;;2.20;1.50;;;21.80;52.50;;;;;;5033615;28;20327;-70
2023/02/24 05:43:40;;;;;;;2.15;1.17;;;21.80;52.50;;;;;;5016517;28;20547;-70
2023/02/24 05:46:06;;;;;;;2.25;1.50;;;21.80;52.50;;;;;;5033413;28;20047;-70
2023/02/24 05:48:35;;;;;;;2.03;1.60;;;21.80;52.60;;;;;;5027773;28;20087;-70
2023/02/24 05:51:06;;;;;;;2.05;1.45;;;21.80;52.50;;;;;;5032194;28;20029;-69
2023/02/24 05:53:32;;;;;;;1.90;1.23;;;21.80;52.50;;;;;;5032125;28;20483;-69
2023/02/24 05:56:04;;;;;;;1.73;1.20;;;21.80;52.50;;;;;;5014394;28;20025;-69
2023/02/24 05:58:31;;;;;;;1.40;1.10;;;21.80;52.50;;;;;;5033504;28;20421;-69
2023/02/24 06:01:02;;;;;;;1.85;1.35;;;21.80;52.50;;;;;;5032163;28;20017;-69
2023/02/24 06:03:29;;;;;;;1.52;1.23;;;21.80;52.50;;;;;;5025837;28;20021;-70
2023/02/24 06:06:05;;;;;;;2.08;1.50;;;21.80;52.50;;;;;;5032963;28;20033;-70
2023/02/24 06:08:41;;;;;;;1.92;1.40;;;21.80;52.50;;;;;;5031992;28;20026;-70
2023/02/24 06:11:10;;;;;;;1.98;1.23;;;21.80;52.50;;;;;;5031615;28;20536;-70
2023/02/24 06:13:38;;;;;;;2.03;1.35;;;21.80;52.50;;;;;;5031367;28;20030;-70
2023/02/24 06:16:05;;;;;;;1.73;1.20;;;21.80;52.50;;;;;;5031572;28;20125;-69
2023/02/24 06:18:31;;;;;;;1.90;1.30;;;21.80;52.50;;;;;;5031861;28;20044;-69
2023/02/24 06:21:01;;;;;;;1.67;1.20;;;21.80;52.60;;;;;;5033066;28;20026;-69
2023/02/24 06:23:27;;;;;;;2.15;1.35;;;21.80;52.60;;;;;;5033289;28;20403;-70
2023/02/24 06:25:56;;;;;;;1.70;1.33;;;21.80;52.60;;;;;;5033013;28;20112;-70
2023/02/24 06:28:23;;;;;;;1.42;1.20;;;21.80;52.60;;;;;;5032988;28;20480;-70
2023/02/24 06:30:49;;;;;;;2.53;1.23;;;21.80;52.60;;;;;;5033070;28;20034;-70
2023/02/24 06:33:15;;;;;;;1.90;1.20;;;21.80;52.60;;;;;;5032494;28;20109;-70
2023/02/24 06:35:41;;;;;;;2.00;1.30;;;21.80;52.60;;;;;;5031933;28;20065;-68
2023/02/24 06:38:07;;;;;;;1.60;1.20;;;21.80;52.60;;;;;;5031457;28;20481;-68
2023/02/24 06:40:32;;;;;;;1.85;1.45;;;21.80;52.60;;;;;;5032390;28;20033;-69
2023/02/24 06:42:58;;;;;;;1.95;1.40;;;21.70;52.50;;;;;;5032252;28;20030;-68
2023/02/24 06:45:25;;;;;;;1.70;1.17;;;21.80;52.60;;;;;;5032030;28;20030;-69
2023/02/24 06:47:50;;;;;;;1.70;1.20;;;21.80;52.60;;;;;;5032498;28;20095;-68
2023/02/24 06:50:19;;;;;;;2.17;1.42;;;21.70;52.10;;;;;;5015055;28;20041;-68
2023/02/24 06:52:48;;;;;;;1.80;1.20;;;21.80;52.60;;;;;;5014410;28;20584;-68
2023/02/24 06:55:27;;;;;;;;;;;21.70;52.50;;;;;;5030766;28;20065;-68
2023/02/24 06:57:57;;;;;;;1.83;1.20;;;21.70;52.60;;;;;;5031857;28;19937;-68
2023/02/24 07:00:37;;;;;;;1.75;1.25;;;21.70;52.50;;;;;;5031469;28;20035;-68
2023/02/24 07:03:13;;;;;;;1.30;1.10;;;21.70;52.50;;;;;;5031120;28;20152;-68
2023/02/24 07:05:52;;;;;;;1.77;1.35;;;21.70;52.50;;;;;;5031100;28;20513;-68
2023/02/24 07:08:26;;;;;;;1.73;1.13;;;21.70;52.50;;;;;;5014480;28;20120;-68
2023/02/24 07:10:56;;;;;;;1.38;1.20;;;21.70;52.50;;;;;;5031614;28;20036;-68
2023/02/24 07:13:24;;;;;;;1.73;1.30;;;21.70;52.60;;;;;;5031037;28;20022;-68
2023/02/24 07:15:50;;;;;;;1.85;1.30;;;21.70;52.60;;;;;;5031564;28;20436;-68
2023/02/24 07:18:17;;;;;;;1.90;1.38;;;21.70;52.60;;;;;;5014896;28;20051;-68
2023/02/24 07:20:45;;;;;;;1.83;1.20;;;21.70;52.60;;;;;;5032059;28;20030;-68
2023/02/24 07:23:12;;;;;;;1.55;1.20;;;21.70;52.60;;;;;;5031039;28;20116;-68
2023/02/24 07:25:39;;;;;;;1.77;1.38;;;21.70;52.60;;;;;;5030654;28;20029;-68
2023/02/24 07:28:06;;;;;;;1.80;1.25;;;21.70;52.60;;;;;;5031838;28;20476;-68
2023/02/24 07:30:32;;;;;;;1.55;1.20;;;21.70;52.60;;;;;;5032165;28;20026;-68
2023/02/24 07:33:02;;;;;;;2.00;1.48;;;21.70;52.60;;;;;;5013949;28;20076;-68
2023/02/24 07:35:28;;;;;;;1.80;1.30;;;21.70;52.60;;;;;;5029656;28;20442;-68
2023/02/24 07:37:54;;;;;;;1.25;1.00;;;21.70;52.70;;;;;;5010543;28;20064;-68
2023/02/24 07:40:21;;;;;;;1.85;1.20;;;21.70;52.60;;;;;;5005382;28;20117;-69
2023/02/24 07:42:52;;;;;;;1.85;1.40;;;21.70;52.70;;;;;;5032112;28;20463;-68
2023/02/24 07:45:18;;;;;;;1.83;1.30;;;21.70;52.70;;;;;;5031889;28;20049;-68
2023/02/24 07:47:44;;;;;;;1.75;1.20;;;21.60;52.60;;;;;;5031212;28;20499;-68
2023/02/24 07:50:13;;;;;;;1.75;1.30;;;21.70;52.60;;;;;;5013897;28;20026;-68
2023/02/24 07:52:40;;;;;;;1.60;1.13;;;21.70;52.70;;;;;;5031856;28;20018;-68
2023/02/24 07:55:07;;;;;;;1.52;1.20;;;21.70;53.20;;;;;;5030294;28;20096;-68
2023/02/24 07:57:36;;;;;;;2.10;1.27;;;21.70;52.70;;;;;;5029121;28;20662;-69
2023/02/24 08:00:16;;;;;;;1.80;1.20;;;21.70;52.70;;;;;;5029818;28;20025;-68
2023/02/24 08:02:41;;;;;;;1.67;1.30;;;21.70;52.70;;;;;;5029251;28;20029;-69
2023/02/24 08:05:08;;;;;;;1.30;1.10;;;21.60;52.60;;;;;;5012994;28;20049;-69
2023/02/24 08:07:33;;;;;;;2.00;1.35;;;21.60;52.70;;;;;;5030632;28;20060;-68
2023/02/24 08:10:23;;;;;;;1.55;1.20;;;21.60;52.70;;;;;;5030741;28;20025;-68
2023/02/24 08:12:53;;;;;;;;;;;21.60;52.70;;;;;;5030026;28;20388;-68
2023/02/24 08:15:23;;;;;;;1.80;1.25;;;21.60;52.70;;;;;;5029497;28;19928;-69
2023/02/24 08:17:51;;;;;;;1.73;1.20;;;21.60;52.60;;;;;;5031017;28;20045;-68
2023/02/24 08:22:50;;;;;;;1.70;1.20;;;21.60;52.70;;;;;;5029758;28;20415;-68
2023/02/24 08:25:21;;;;;;;1.70;1.13;;;21.60;53.00;;;;;;5030385;28;20026;-68
2023/02/24 08:27:55;;;;;;;1.60;1.20;;;21.60;52.70;;;;;;5029412;28;20033;-69
2023/02/24 08:30:23;;;;;;;1.90;1.27;;;21.60;52.70;;;;;;5027374;28;20065;-69
2023/02/24 08:32:57;;;;;;;1.45;1.13;;;21.60;52.70;;;;;;5029837;28;20025;-69
2023/02/24 08:35:34;;;;;;;1.60;1.30;;;21.60;52.80;;;;;;5013287;28;20116;-68
2023/02/24 08:38:09;;;;;;;1.50;1.20;;;21.60;52.70;;;;;;5029699;28;20096;-69
2023/02/24 08:40:38;;;;;;;1.85;1.20;;;21.60;52.70;;;;;;5028216;28;20060;-68
2023/02/24 08:43:15;;;;;;;1.42;1.17;;;21.60;52.70;;;;;;5029113;28;20033;-69
2023/02/24 08:45:49;;;;;;;2.00;1.10;;;21.60;52.70;;;;;;5029284;28;20110;-68
2023/02/24 08:48:24;;;;;;;1.73;1.20;;;21.60;52.70;;;;;;5027186;28;20025;-68
2023/02/24 08:50:58;;;;;;;1.48;1.13;;;21.60;52.70;;;;;;5029368;28;20029;-68
2023/02/24 08:53:30;;;;;;;3.03;1.30;;;21.60;52.70;;;;;;5029490;28;20100;-69
2023/02/24 08:55:57;;;;;;;2.03;1.23;;;21.60;52.70;;;;;;5030588;28;20432;-68
2023/02/24 08:58:26;;;;;;;1.50;1.10;;;21.60;52.70;;;;;;5012765;28;20035;-68
2023/02/24 09:00:58;;;;;;;1.95;1.23;;;21.60;52.70;;;;;;5031157;28;20042;-68
2023/02/24 09:03:28;;;;;;;1.85;1.10;;;21.60;52.70;;;;;;5012908;28;20376;-68
2023/02/24 09:05:58;;;;;;;2.28;1.20;;;21.60;52.70;;;;;;5030530;28;20049;-69
2023/02/24 09:08:31;;;;;;;1.73;1.30;;;21.60;52.70;;;;;;5026895;28;20029;-68
2023/02/24 09:10:58;;;;;;;1.88;1.20;;;21.60;52.70;;;;;;5029131;28;20143;-68
2023/02/24 09:13:31;;;;;;;1.65;1.20;;;21.60;53.20;;;;;;5030416;28;20532;-68
2023/02/24 09:15:58;;;;;;;1.77;1.30;;;21.60;52.70;;;;;;5029320;28;20053;-69
2023/02/24 09:18:29;;;;;;;1.75;1.02;;;21.60;52.70;;;;;;5027031;28;20374;-68
2023/02/24 09:23:44;;;;;;;1.98;1.35;;;21.60;52.70;;;;;;5029219;28;20044;-69
2023/02/24 09:26:12;;;;;;;1.67;1.20;;;21.60;52.70;;;;;;5029813;28;20028;-67
2023/02/24 09:28:47;;;;;;;2.13;1.30;;;21.50;52.60;;;;;;5029280;28;20032;-68
2023/02/24 09:31:17;;;;;;;1.80;1.20;;;21.50;52.60;;;;;;5029664;28;20025;-68
2023/02/24 09:33:49;;;;;;;2.28;1.40;;;21.50;52.60;;;;;;5012542;28;20032;-67
2023/02/24 09:36:26;;;;;;;2.30;1.50;;;21.50;52.60;;;;;;5028685;28;20444;-68
2023/02/24 09:41:31;;;;;;;1.80;1.20;;;21.50;52.60;;;;;;5028569;28;20026;-68
2023/02/24 09:44:02;;;;;;;2.00;1.50;;;21.50;52.60;;;;;;5028726;28;20036;-68
2023/02/24 09:46:34;;;;;;;2.00;1.40;;;21.50;52.60;;;;;;5028649;28;20025;-68
2023/02/24 09:49:11;;;;;;;2.35;1.30;;;21.50;52.60;;;;;;5028943;28;20043;-68
2023/02/24 09:51:43;;;;;;;1.55;1.15;;;21.50;52.60;;;;;;5029563;28;20052;-68
2023/02/24 09:54:15;;;;;;;1.95;1.20;;;21.50;52.60;;;;;;5026363;28;20560;-68
2023/02/24 09:57:07;;;;;;;2.08;1.33;;;21.50;52.60;;;;;;5028286;28;20469;-68
2023/02/24 10:00:23;;;;;;;1.80;1.30;;;21.50;52.60;;;;;;5029587;28;20025;-68
2023/02/24 10:03:02;;;;;;;1.80;1.30;;;21.50;52.60;;;;;;5027783;28;20114;-68
2023/02/24 10:05:57;;;;;;;2.38;1.55;;;21.50;52.60;;;;;;5029516;28;20026;-68
2023/02/24 10:08:33;;;;;;;1.92;1.30;;;21.50;53.20;;;;;;5002205;28;20025;-68
2023/02/24 10:11:05;;;;;;;2.25;1.40;;;21.50;52.60;;;;;;5029347;28;20026;-68
2023/02/24 10:13:33;;;;;;;1.73;1.20;;;21.50;52.60;;;;;;5012458;28;20025;-68
2023/02/24 10:16:04;;;;;;;2.45;1.33;;;21.50;52.60;;;;;;5012164;28;20071;-68
2023/02/24 10:18:59;;;;;;;1.80;1.27;;;21.50;52.60;;;;;;5012208;28;20024;-68
2023/02/24 10:22:02;;;;;;;1.98;1.30;;;21.50;52.60;;;;;;5031571;28;20488;-68
2023/02/24 10:24:46;;;;;;;1.75;1.30;;;21.50;52.60;;;;;;5012068;28;20046;-69
2023/02/24 10:27:25;;;;;;;2.10;1.20;;;21.50;52.70;;;;;;5032267;28;20026;-69
2023/02/24 10:30:09;;;;;;;2.50;1.50;;;21.50;52.60;;;;;;5031059;28;20033;-69
2023/02/24 10:32:52;;;;;;;2.42;1.30;;;21.50;52.60;;;;;;5031299;28;20028;-69
2023/02/24 10:35:24;;;;;;;1.90;1.30;;;21.50;52.70;;;;;;5032951;28;20030;-69
2023/02/24 10:37:51;;;;;;;2.00;1.17;;;21.50;52.70;;;;;;5031905;28;20056;-69
2023/02/24 10:40:43;;;;;;;2.20;1.40;;;21.40;52.70;;;;;;5015302;28;20026;-69
2023/02/24 10:43:16;;;;;;;1.85;1.35;;;21.40;52.70;;;;;;5031780;28;20021;-69
2023/02/24 10:45:44;;;;;;;1.60;1.10;;;21.40;52.70;;;;;;5032636;28;20021;-70
2023/02/24 10:48:23;;;;;;;2.83;1.40;;;21.40;52.80;;;;;;5032396;28;20076;-69
2023/02/24 10:50:53;;;;;;;2.35;1.20;;;21.40;52.80;;;;;;5029812;28;20040;-69
2023/02/24 10:53:25;;;;;;;2.72;1.83;;;21.40;53.00;;;;;;5032359;28;20401;-69
2023/02/24 10:56:00;;;;;;;1.38;1.08;;;21.40;53.00;;;;;;5032286;28;20056;-69
2023/02/24 10:58:43;;;;;;;1.73;1.20;;;21.40;53.00;;;;;;5031855;28;20421;-69
2023/02/24 11:01:19;;;;;;;3.15;1.40;;;21.40;53.00;;;;;;5012993;28;20091;-69
2023/02/24 11:04:00;;;;;;;2.50;1.60;;;21.50;53.70;;;;;;5032463;28;20515;-69
2023/02/24 11:09:30;;;;;;;5.43;1.80;;;21.50;54.10;;;;;;5030936;28;20029;-69
2023/02/24 11:17:57;;;;;;;2.40;1.60;;;21.60;54.00;;;;;;5030393;28;20101;-69
2023/02/24 11:20:32;;;;;;;2.85;1.55;;;21.60;54.00;;;;;;5031568;28;20449;-70
2023/02/24 11:23:02;;;;;;;3.88;1.80;;;21.70;54.10;;;;;;5013281;28;20026;-70
2023/02/24 11:25:39;;;;;;;2.83;1.80;;;21.70;54.20;;;;;;5031847;28;20017;-69
2023/02/24 11:28:15;;;;;;;2.55;1.55;;;21.70;54.10;;;;;;5030792;28;20022;-69
2023/02/24 11:31:13;;;;;;;2.85;1.70;;;21.70;54.00;;;;;;5030619;28;20388;-69
2023/02/24 11:34:04;;;;;;;2.70;1.65;;;21.80;54.10;;;;;;5003598;28;20060;-70
2023/02/24 11:36:42;;;;;;;3.72;1.90;;;21.80;54.00;;;;;;5032019;28;20025;-69
2023/02/24 11:39:32;;;;;;;3.42;1.73;;;21.80;54.00;;;;;;5031744;28;20025;-70
2023/02/24 11:42:04;;;;;;;3.08;1.80;;;21.90;54.00;;;;;;5027563;28;20021;-70
2023/02/24 11:45:07;;;;;;;3.95;1.90;;;21.90;54.00;;;;;;5031792;28;20076;-69
2023/02/24 11:47:41;;;;;;;3.33;2.00;;;22.00;54.10;;;;;;5014058;28;20120;-69
2023/02/24 11:50:29;;;;;;;3.70;1.60;;;22.00;54.10;;;;;;5030696;28;20400;-69
2023/02/24 11:52:58;;;;;;;2.67;1.67;;;22.10;54.10;;;;;;5025673;28;20485;-69
2023/02/24 11:55:37;;;;;;;2.53;1.63;;;22.10;54.00;;;;;;5023864;28;20377;-70
2023/02/24 11:58:28;;;;;;;3.70;1.90;;;22.10;54.00;;;;;;5030681;28;20024;-69
2023/02/24 12:01:05;;;;;;;3.05;1.80;;;22.10;53.90;;;;;;5030562;28;20025;-69
2023/02/24 12:03:49;;;;;;;3.83;1.67;;;22.20;53.90;;;;;;5030811;28;20087;-70
2023/02/24 12:06:21;;;;;;;3.03;1.73;;;22.20;53.80;;;;;;5027069;28;20044;-69
2023/02/24 12:08:52;;;;;;;2.45;1.60;;;22.20;53.80;;;;;;5030538;28;20041;-69
2023/02/24 12:11:33;;;;;;;2.65;1.60;;;22.20;53.70;;;;;;5031412;28;20065;-69
2023/02/24 12:14:11;;;;;;;3.35;1.70;;;22.30;53.70;;;;;;5022150;28;20031;-69
2023/02/24 12:16:44;;;;;;;3.20;1.83;;;22.30;53.60;;;;;;5031162;28;20036;-68
2023/02/24 12:19:38;;;;;;;3.08;1.70;;;22.30;53.50;;;;;;5005871;28;20025;-69
2023/02/24 12:22:13;;;;;;;3.00;1.90;;;22.40;53.50;;;;;;5030360;28;20033;-69
2023/02/24 12:24:46;;;;;;;3.13;1.80;;;22.40;53.50;;;;;;5030614;28;20551;-69
2023/02/24 12:27:30;;;;;;;3.42;1.92;;;22.40;53.50;;;;;;5028965;28;20036;-69
2023/02/24 12:30:05;;;;;;;2.58;1.77;;;22.40;53.40;;;;;;5031102;28;20422;-69
2023/02/24 12:33:27;;;;;;;3.15;1.75;;;22.50;53.30;;;;;;5031425;28;20585;-70
2023/02/24 12:36:14;;;;;;;2.50;1.60;;;22.50;53.20;;;;;;4987803;28;20409;-70
2023/02/24 12:38:44;;;;;;;3.50;1.80;;;22.50;53.20;;;;;;5030021;28;20021;-69
2023/02/24 12:41:45;;;;;;;2.40;1.50;;;22.50;53.10;;;;;;5023137;28;20041;-70
2023/02/24 12:44:35;;;;;;;3.70;1.83;;;22.50;53.10;;;;;;5001298;28;20041;-69
2023/02/24 12:47:13;;;;;;;3.58;1.70;;;22.60;53.10;;;;;;5029824;28;20036;-70
2023/02/24 12:49:50;;;;;;;3.05;1.67;;;22.60;53.00;;;;;;5032082;28;20032;-70
2023/02/24 12:52:34;;;;;;;4.18;2.00;;;22.60;52.90;;;;;;5017605;28;20055;-70
2023/02/24 12:55:21;;;;;;;2.10;1.50;;;22.60;52.80;;;;;;5029866;28;20017;-70
2023/02/24 12:58:11;;;;;;;4.20;1.95;;;22.70;52.80;;;;;;5031544;28;20538;-69
2023/02/24 13:00:46;;;;;;;3.20;1.83;;;22.70;52.80;;;;;;5031646;28;20499;-70
2023/02/24 13:03:17;;;;;;;3.60;1.63;;;22.70;52.70;;;;;;5031737;28;20056;-70
2023/02/24 13:06:02;;;;;;;2.30;1.70;;;22.70;52.70;;;;;;5032651;28;20032;-69
2023/02/24 13:08:57;;;;;;;3.25;1.50;;;22.70;52.60;;;;;;5030946;28;20029;-70
2023/02/24 13:11:53;;;;;;;2.85;1.70;;;22.70;52.60;;;;;;5011842;28;20041;-70
2023/02/24 13:14:34;;;;;;;3.20;1.77;;;22.70;52.60;;;;;;5031346;28;20035;-70
2023/02/24 13:17:09;;;;;;;3.47;1.70;;;22.70;52.50;;;;;;5030684;28;20037;-70
2023/02/24 13:19:36;;;;;;;3.25;1.83;;;22.70;52.50;;;;;;5033055;28;20041;-70
2023/02/24 13:22:10;;;;;;;3.08;1.70;;;22.70;52.40;;;;;;5011719;28;20519;-70
2023/02/24 13:24:39;;;;;;;2.58;1.50;;;22.70;52.40;;;;;;5032531;28;20026;-71
2023/02/24 13:27:12;;;;;;;2.95;1.65;;;22.70;52.40;;;;;;5012818;28;20115;-70
2023/02/24 13:29:52;;;;;;;3.22;1.73;;;22.70;52.90;;;;;;5030496;28;20025;-70
2023/02/24 13:32:30;;;;;;;2.95;1.80;;;22.70;52.40;;;;;;5030694;28;20576;-70
2023/02/24 13:34:58;;;;;;;3.15;1.77;;;22.70;52.40;;;;;;5032210;28;20029;-70
2023/02/24 13:37:38;;;;;;;2.83;1.67;;;22.70;52.30;;;;;;5031427;28;20108;-69
2023/02/24 13:40:20;;;;;;;2.50;1.50;;;22.70;52.30;;;;;;5032978;28;20931;-70
2023/02/24 13:42:57;;;;;;;2.45;1.45;;;22.70;52.30;;;;;;5031308;28;20480;-70
2023/02/24 13:45:27;;;;;;;2.70;1.67;;;22.70;52.20;;;;;;5030337;28;20030;-70